createdAt,value
2022-07-26T00:01:39.846Z,66.29
2022-07-26T00:04:07.850Z,65.79
2022-07-26T00:06:34.974Z,65.99
2022-07-26T00:09:02.120Z,66.01
2022-07-26T00:11:30.527Z,66.07
2022-07-26T00:13:57.635Z,66.29
2022-07-26T00:16:24.648Z,66.07
2022-07-26T00:18:51.551Z,66.13
2022-07-26T00:21:18.723Z,66.42
2022-07-26T00:23:45.680Z,67.41
2022-07-26T00:26:12.993Z,67.87
2022-07-26T00:28:41.430Z,67.51
2022-07-26T00:31:09.133Z,67.90
2022-07-26T00:33:36.158Z,67.81
2022-07-26T00:36:03.766Z,67.44
2022-07-26T00:38:30.774Z,67.88
2022-07-26T00:40:58.984Z,67.39
2022-07-26T00:43:26.074Z,67.57
2022-07-26T00:45:53.073Z,67.74
2022-07-26T00:48:20.075Z,67.68
2022-07-26T00:50:47.839Z,67.53
2022-07-26T00:53:14.757Z,67.40
2022-07-26T00:55:42.281Z,67.42
2022-07-26T00:58:09.347Z,67.38
2022-07-26T01:00:36.427Z,67.31
2022-07-26T01:03:03.525Z,67.42
2022-07-26T01:05:31.679Z,67.56
2022-07-26T01:07:59.014Z,67.41
2022-07-26T01:10:26.003Z,67.49
2022-07-26T01:12:53.198Z,67.39
2022-07-26T01:15:20.442Z,67.46
2022-07-26T01:17:47.486Z,67.56
2022-07-26T01:20:14.925Z,67.94
2022-07-26T01:22:41.993Z,67.98
2022-07-26T01:25:09.494Z,67.90
2022-07-26T01:27:39.625Z,68.13
2022-07-26T01:30:10.275Z,68.25
2022-07-26T01:32:37.818Z,68.28
2022-07-26T01:35:06.149Z,68.63
2022-07-26T01:37:33.007Z,68.58
2022-07-26T01:40:00.062Z,68.48
2022-07-26T01:42:26.951Z,68.67
2022-07-26T01:44:53.835Z,68.50
2022-07-26T01:47:21.509Z,68.41
2022-07-26T01:49:48.696Z,68.47
2022-07-26T01:52:15.543Z,68.44
2022-07-26T01:54:42.818Z,68.43
2022-07-26T01:57:09.788Z,68.49
2022-07-26T01:59:36.678Z,68.72
2022-07-26T02:02:03.799Z,68.91
2022-07-26T02:04:49.396Z,68.89
2022-07-26T02:07:16.514Z,69.04
2022-07-26T02:09:44.156Z,68.86
2022-07-26T02:12:11.001Z,68.76
2022-07-26T02:14:38.035Z,68.87
2022-07-26T02:17:05.113Z,68.92
2022-07-26T02:19:32.016Z,68.91
2022-07-26T02:21:59.602Z,69.25
2022-07-26T02:24:29.871Z,69.25
2022-07-26T02:27:00.985Z,69.78
2022-07-26T02:29:28.446Z,69.89
2022-07-26T02:31:56.295Z,70.04
2022-07-26T02:34:23.956Z,70.23
2022-07-26T02:36:51.092Z,70.32
2022-07-26T02:39:18.040Z,70.61
2022-07-26T02:41:45.232Z,70.85
2022-07-26T02:44:13.014Z,70.94
2022-07-26T02:46:40.186Z,70.90
2022-07-26T02:49:07.238Z,70.89
2022-07-26T02:51:34.436Z,70.75
2022-07-26T02:54:01.515Z,71.46
2022-07-26T02:56:28.554Z,71.12
2022-07-26T02:58:55.709Z,71.34
2022-07-26T03:01:22.644Z,71.47
2022-07-26T03:03:50.980Z,71.75
2022-07-26T03:06:19.529Z,71.88
2022-07-26T03:08:47.779Z,71.74
2022-07-26T03:11:14.716Z,71.57
2022-07-26T03:13:41.943Z,71.65
2022-07-26T03:16:08.942Z,71.91
2022-07-26T03:18:36.185Z,71.54
2022-07-26T03:21:03.374Z,71.57
2022-07-26T03:23:33.490Z,71.99
2022-07-26T03:26:02.287Z,72.10
2022-07-26T03:28:33.826Z,72.03
2022-07-26T03:31:01.184Z,72.29
2022-07-26T03:33:29.558Z,72.07
2022-07-26T03:35:56.764Z,72.55
2022-07-26T03:38:23.682Z,72.51
2022-07-26T03:40:50.741Z,72.73
2022-07-26T03:43:22.944Z,72.66
2022-07-26T03:45:50.989Z,72.39
2022-07-26T03:48:22.235Z,72.30
2022-07-26T03:50:49.401Z,71.65
2022-07-26T03:53:16.400Z,71.50
2022-07-26T03:56:01.952Z,71.03
2022-07-26T03:58:28.755Z,71.04
2022-07-26T04:00:55.756Z,70.92
2022-07-26T04:03:22.842Z,71.00
2022-07-26T04:05:49.747Z,71.55
2022-07-26T04:08:19.994Z,71.13
2022-07-26T04:10:48.380Z,71.25
2022-07-26T04:13:15.338Z,71.32
2022-07-26T04:15:42.423Z,71.08
2022-07-26T04:18:09.545Z,70.95
2022-07-26T04:20:36.498Z,70.71
2022-07-26T04:23:03.558Z,70.54
2022-07-26T04:25:40.667Z,70.04
2022-07-26T04:28:09.123Z,69.56
2022-07-26T04:30:36.430Z,69.43
2022-07-26T04:33:03.678Z,69.66
2022-07-26T04:35:31.184Z,69.36
2022-07-26T04:37:58.118Z,68.83
2022-07-26T04:40:25.997Z,68.86
2022-07-26T04:42:53.058Z,68.01
2022-07-26T04:45:20.693Z,68.38
2022-07-26T04:47:52.348Z,68.48
2022-07-26T04:50:21.827Z,67.89
2022-07-26T04:52:50.172Z,67.50
2022-07-26T04:55:17.475Z,67.24
2022-07-26T04:57:45.265Z,66.69
2022-07-26T05:00:22.789Z,66.47
2022-07-26T05:02:53.089Z,66.32
2022-07-26T05:05:20.851Z,64.80
2022-07-26T05:07:56.445Z,64.33
2022-07-26T05:10:29.786Z,63.57
2022-07-26T05:12:56.846Z,63.64
2022-07-26T05:15:24.059Z,63.08
2022-07-26T05:17:51.524Z,63.61
2022-07-26T05:20:18.468Z,63.90
2022-07-26T05:22:45.824Z,63.75
2022-07-26T05:25:12.967Z,64.21
2022-07-26T05:27:41.739Z,64.04
2022-07-26T05:30:10.215Z,63.39
2022-07-26T05:32:37.391Z,63.25
2022-07-26T05:35:05.167Z,63.13
2022-07-26T05:37:32.211Z,62.70
2022-07-26T05:39:59.067Z,62.67
2022-07-26T05:42:26.860Z,62.50
2022-07-26T05:44:54.059Z,62.03
2022-07-26T05:47:23.282Z,61.85
2022-07-26T05:49:50.676Z,61.66
2022-07-26T05:52:18.589Z,61.51
2022-07-26T05:54:45.544Z,61.62
2022-07-26T05:57:12.997Z,62.14
2022-07-26T05:59:40.102Z,62.12
2022-07-26T06:02:09.631Z,62.14
2022-07-26T06:04:37.138Z,62.46
2022-07-26T06:07:04.336Z,62.43
2022-07-26T06:09:31.407Z,62.45
2022-07-26T06:11:58.241Z,62.00
2022-07-26T06:14:25.598Z,62.00
2022-07-26T06:16:53.190Z,61.66
2022-07-26T06:19:20.370Z,61.37
2022-07-26T06:21:47.756Z,61.18
2022-07-26T06:24:14.661Z,60.73
2022-07-26T06:26:41.757Z,60.24
2022-07-26T06:29:08.972Z,59.95
2022-07-26T06:31:36.473Z,59.16
2022-07-26T06:34:03.997Z,58.45
2022-07-26T06:36:31.433Z,57.58
2022-07-26T06:38:58.890Z,57.95
2022-07-26T06:41:26.406Z,57.55
2022-07-26T06:43:53.820Z,57.07
2022-07-26T06:46:21.487Z,56.91
2022-07-26T06:48:53.010Z,56.74
2022-07-26T06:51:21.056Z,56.40
2022-07-26T06:53:48.252Z,55.95
2022-07-26T06:56:17.926Z,55.21
2022-07-26T06:58:45.244Z,54.65
2022-07-26T07:01:12.461Z,54.85
2022-07-26T07:03:40.013Z,53.51
2022-07-26T07:06:07.324Z,53.44
2022-07-26T07:08:34.546Z,53.35
2022-07-26T07:11:01.987Z,52.65
2022-07-26T07:13:29.059Z,53.52
2022-07-26T07:15:56.011Z,52.70
2022-07-26T07:18:23.534Z,53.34
2022-07-26T07:20:50.617Z,53.23
2022-07-26T07:23:17.707Z,53.33
2022-07-26T07:25:45.058Z,52.65
2022-07-26T07:28:12.327Z,50.85
2022-07-26T07:30:39.151Z,50.50
2022-07-26T07:33:09.459Z,50.62
2022-07-26T07:35:51.142Z,49.95
2022-07-26T07:38:18.870Z,49.77
2022-07-26T07:40:46.027Z,49.26
2022-07-26T07:43:13.075Z,49.11
2022-07-26T07:45:40.033Z,48.67
2022-07-26T07:48:06.971Z,48.92
2022-07-26T07:50:34.173Z,49.36
2022-07-26T07:53:02.105Z,47.23
2022-07-26T07:55:41.110Z,47.49
2022-07-26T07:58:10.709Z,48.22
2022-07-26T08:00:37.854Z,48.15
2022-07-26T08:03:05.439Z,48.07
2022-07-26T08:05:32.623Z,48.41
2022-07-26T08:07:59.555Z,48.35
2022-07-26T08:10:26.805Z,47.17
2022-07-26T08:12:53.894Z,47.82
2022-07-26T08:15:23.483Z,48.40
2022-07-26T08:17:53.827Z,47.72
2022-07-26T08:20:23.588Z,48.39
2022-07-26T08:22:50.990Z,48.24
2022-07-26T08:25:18.411Z,47.74
2022-07-26T08:28:02.563Z,47.51
2022-07-26T08:30:31.396Z,48.12
2022-07-26T08:32:59.096Z,46.47
2022-07-26T08:35:26.051Z,46.21
2022-07-26T08:37:53.196Z,45.73
2022-07-26T08:40:20.501Z,46.10
2022-07-26T08:42:52.741Z,46.50
2022-07-26T08:45:25.201Z,46.74
2022-07-26T08:48:15.997Z,46.71
2022-07-26T08:50:40.838Z,45.21
2022-07-26T08:53:09.493Z,45.91
2022-07-26T08:56:04.436Z,44.87
2022-07-26T08:58:24.251Z,45.11
2022-07-26T09:01:08.755Z,45.13
2022-07-26T09:03:39.147Z,45.28
2022-07-26T09:06:13.501Z,45.50
2022-07-26T09:08:40.795Z,45.36
2022-07-26T09:11:25.967Z,45.33
2022-07-26T09:13:59.119Z,44.79
2022-07-26T09:16:28.295Z,44.92
2022-07-26T09:19:13.753Z,45.17
2022-07-26T09:21:40.589Z,44.11
2022-07-26T09:24:07.860Z,43.77
2022-07-26T09:26:34.823Z,44.41
2022-07-26T09:29:05.382Z,43.87
2022-07-26T09:31:33.230Z,44.69
2022-07-26T09:34:00.300Z,43.87
2022-07-26T09:36:28.257Z,44.75
2022-07-26T09:38:59.134Z,45.00
2022-07-26T09:41:35.148Z,44.34
2022-07-26T09:44:05.647Z,45.05
2022-07-26T09:46:35.692Z,45.07
2022-07-26T09:49:19.424Z,44.63
2022-07-26T09:51:49.567Z,44.79
2022-07-26T09:54:31.622Z,44.52
2022-07-26T09:56:59.270Z,43.88
2022-07-26T09:59:28.116Z,45.17
2022-07-26T10:01:57.825Z,44.35
2022-07-26T10:04:25.904Z,44.72
2022-07-26T10:06:53.237Z,45.13
2022-07-26T10:09:22.989Z,45.54
2022-07-26T10:11:56.514Z,45.10
2022-07-26T10:14:47.998Z,45.11
2022-07-26T10:17:30.978Z,46.55
2022-07-26T10:20:16.840Z,44.90
2022-07-26T10:22:49.001Z,46.87
2022-07-26T10:25:19.053Z,44.99
2022-07-26T10:27:52.418Z,45.33
2022-07-26T10:30:19.316Z,46.02
2022-07-26T10:33:01.658Z,45.82
2022-07-26T10:35:34.686Z,45.13
2022-07-26T10:38:06.003Z,46.16
2022-07-26T10:40:34.052Z,46.11
2022-07-26T10:43:40.205Z,45.68
2022-07-26T10:46:13.358Z,47.26
2022-07-26T10:49:03.643Z,47.21
2022-07-26T10:51:36.618Z,46.51
2022-07-26T10:54:06.024Z,46.43
2022-07-26T10:56:34.302Z,47.03
2022-07-26T10:59:03.766Z,46.77
2022-07-26T11:01:38.579Z,47.85
2022-07-26T11:04:17.520Z,47.24
2022-07-26T11:06:45.619Z,46.99
2022-07-26T11:09:13.233Z,48.18
2022-07-26T11:11:46.319Z,48.02
2022-07-26T11:14:17.362Z,47.70
2022-07-26T11:16:47.990Z,48.10
2022-07-26T11:19:26.110Z,47.82
2022-07-26T11:21:59.223Z,47.45
2022-07-26T11:24:27.511Z,47.14
2022-07-26T11:26:55.567Z,47.96
2022-07-26T11:29:38.852Z,47.06
2022-07-26T11:32:18.530Z,48.52
2022-07-26T11:34:46.784Z,49.63
2022-07-26T11:37:14.376Z,50.27
2022-07-26T11:39:41.396Z,50.88
2022-07-26T11:42:19.613Z,51.39
2022-07-26T11:44:48.767Z,51.17
2022-07-26T11:47:24.245Z,51.15
2022-07-26T11:50:21.952Z,51.46
2022-07-26T11:52:41.942Z,51.48
2022-07-26T11:55:09.746Z,51.48
2022-07-26T11:57:36.712Z,51.92
2022-07-26T12:00:05.947Z,52.46
2022-07-26T12:02:39.703Z,53.01
2022-07-26T12:05:21.211Z,53.76
2022-07-26T12:08:00.639Z,54.39
2022-07-26T12:10:28.656Z,54.93
2022-07-26T12:13:13.840Z,55.77
2022-07-26T12:15:52.611Z,56.47
2022-07-26T12:18:28.613Z,56.88
2022-07-26T12:21:04.437Z,58.23
2022-07-26T12:23:48.635Z,60.05
2022-07-26T12:26:27.340Z,66.13
2022-07-26T12:28:56.541Z,68.39
2022-07-26T12:31:29.030Z,71.63
2022-07-26T12:33:56.602Z,73.92
2022-07-26T12:36:27.506Z,75.07
2022-07-26T12:39:00.340Z,77.81
2022-07-26T12:41:32.753Z,78.84
2022-07-26T12:44:00.111Z,78.26
2022-07-26T12:46:27.319Z,78.40
2022-07-26T12:48:59.660Z,77.42
2022-07-26T12:51:27.067Z,77.47
2022-07-26T12:53:53.949Z,77.26
2022-07-26T12:56:21.001Z,77.30
2022-07-26T12:58:47.983Z,77.04
2022-07-26T13:01:14.943Z,77.73
2022-07-26T13:03:42.174Z,80.12
2022-07-26T13:06:09.188Z,82.75
2022-07-26T13:08:36.042Z,88.53
2022-07-26T13:11:03.130Z,92.92
2022-07-26T13:13:30.189Z,96.92
2022-07-26T13:15:57.019Z,100.00
2022-07-26T13:18:24.113Z,100.00
2022-07-26T13:20:50.982Z,100.00
2022-07-26T13:23:21.429Z,100.00
2022-07-26T13:25:49.728Z,100.00
2022-07-26T13:28:17.482Z,100.00
2022-07-26T13:30:45.232Z,100.00
2022-07-26T13:33:12.646Z,100.00
2022-07-26T13:35:41.094Z,100.00
2022-07-26T13:38:09.070Z,100.00
2022-07-26T13:40:36.670Z,100.00
2022-07-26T13:43:04.745Z,100.00
2022-07-26T13:45:31.818Z,100.00
2022-07-26T13:47:59.661Z,100.00
2022-07-26T13:50:27.851Z,100.00
2022-07-26T13:52:56.455Z,100.00
2022-07-26T13:55:24.376Z,100.00
2022-07-26T13:57:56.563Z,100.00
2022-07-26T14:00:29.568Z,100.00
2022-07-26T14:03:00.752Z,100.00
2022-07-26T14:05:28.737Z,100.00
2022-07-26T14:07:56.088Z,100.00
2022-07-26T14:10:24.216Z,100.00
2022-07-26T14:12:52.617Z,100.00
2022-07-26T14:15:22.693Z,100.00
2022-07-26T14:17:53.222Z,100.00
2022-07-26T14:20:21.358Z,100.00
2022-07-26T14:22:48.915Z,100.00
2022-07-26T14:25:15.781Z,100.00
2022-07-26T14:27:42.906Z,100.00
2022-07-26T14:30:10.317Z,100.00
2022-07-26T14:32:37.244Z,100.00
2022-07-26T14:35:05.304Z,100.00
2022-07-26T14:37:43.810Z,100.00
2022-07-26T14:40:17.307Z,100.00
2022-07-26T14:42:45.570Z,100.00
2022-07-26T14:45:13.819Z,100.00
2022-07-26T14:47:41.249Z,100.00
2022-07-26T14:50:09.430Z,100.00
2022-07-26T14:52:40.724Z,100.00
2022-07-26T14:55:09.369Z,100.00
2022-07-26T14:57:39.624Z,100.00
2022-07-26T15:00:09.745Z,100.00
2022-07-26T15:02:40.933Z,100.00
2022-07-26T15:05:08.925Z,100.00
2022-07-26T15:07:36.063Z,100.00
2022-07-26T15:10:04.651Z,100.00
2022-07-26T15:12:31.987Z,100.00
2022-07-26T15:14:58.863Z,100.00
2022-07-26T15:17:25.907Z,100.00
2022-07-26T15:19:52.944Z,100.00
2022-07-26T15:22:19.998Z,100.00
2022-07-26T15:24:47.272Z,100.00
2022-07-26T15:27:14.195Z,100.00
2022-07-26T15:29:41.988Z,100.00
2022-07-26T15:32:09.345Z,100.00
2022-07-26T15:34:36.325Z,100.00
2022-07-26T15:37:03.184Z,100.00
2022-07-26T15:39:30.439Z,100.00
2022-07-26T15:42:02.625Z,100.00
2022-07-26T15:44:33.605Z,99.15
2022-07-26T15:47:01.330Z,98.81
2022-07-26T15:49:28.408Z,95.68
2022-07-26T15:51:55.535Z,98.27
2022-07-26T15:54:22.495Z,98.63
2022-07-26T15:56:50.224Z,99.49
2022-07-26T15:59:17.442Z,98.99
2022-07-26T16:01:44.534Z,99.86
2022-07-26T16:04:11.904Z,100.00
2022-07-26T16:06:39.637Z,100.00
2022-07-26T16:09:17.369Z,99.32
2022-07-26T16:11:45.946Z,99.58
2022-07-26T16:14:12.763Z,100.00
2022-07-26T16:16:39.681Z,100.00
2022-07-26T16:19:07.096Z,99.57
2022-07-26T16:21:34.078Z,99.69
2022-07-26T16:24:06.417Z,99.94
2022-07-26T16:26:34.603Z,99.38
2022-07-26T16:29:01.724Z,98.02
2022-07-26T16:31:28.795Z,98.16
2022-07-26T16:33:55.825Z,98.11
2022-07-26T16:36:22.706Z,98.61
2022-07-26T16:38:49.609Z,98.74
2022-07-26T16:41:16.965Z,99.83
2022-07-26T16:43:44.210Z,99.98
2022-07-26T16:46:11.297Z,100.00
2022-07-26T16:48:38.892Z,100.00
2022-07-26T16:51:06.101Z,99.98
2022-07-26T16:53:33.275Z,100.00
2022-07-26T16:56:00.510Z,100.00
2022-07-26T16:58:27.661Z,100.00
2022-07-26T17:00:54.555Z,100.00
2022-07-26T17:03:21.902Z,100.00
2022-07-26T17:05:48.808Z,100.00
2022-07-26T17:08:15.672Z,100.00
2022-07-26T17:10:43.414Z,100.00
2022-07-26T17:13:10.383Z,100.00
2022-07-26T17:15:37.510Z,100.00
2022-07-26T17:18:04.854Z,100.00
2022-07-26T17:20:31.793Z,100.00
2022-07-26T17:22:58.769Z,100.00
2022-07-26T17:25:25.897Z,100.00
2022-07-26T17:27:53.193Z,100.00
2022-07-26T17:30:20.484Z,100.00
2022-07-26T17:32:47.958Z,100.00
2022-07-26T17:35:15.060Z,100.00
2022-07-26T17:37:42.064Z,100.00
2022-07-26T17:40:11.026Z,100.00
2022-07-26T17:42:38.871Z,100.00
2022-07-26T17:45:06.742Z,100.00
2022-07-26T17:47:33.928Z,100.00
2022-07-26T17:50:33.992Z,100.00
2022-07-26T17:52:51.787Z,100.00
2022-07-26T17:55:19.441Z,100.00
2022-07-26T17:57:48.205Z,100.00
2022-07-26T18:00:17.819Z,100.00
2022-07-26T18:02:44.763Z,100.00
2022-07-26T18:05:11.710Z,100.00
2022-07-26T18:07:39.750Z,100.00
2022-07-26T18:10:07.067Z,100.00
2022-07-26T18:12:33.946Z,100.00
2022-07-26T18:15:00.973Z,100.00
2022-07-26T18:17:27.920Z,100.00
2022-07-26T18:19:54.819Z,100.00
2022-07-26T18:22:23.244Z,100.00
2022-07-26T18:24:50.226Z,100.00
2022-07-26T18:27:17.154Z,100.00
2022-07-26T18:29:44.251Z,100.00
2022-07-26T18:32:11.322Z,100.00
2022-07-26T18:34:38.372Z,100.00
2022-07-26T18:37:05.382Z,100.00
2022-07-26T18:39:33.191Z,100.00
2022-07-26T18:42:00.645Z,100.00
2022-07-26T18:44:27.849Z,100.00
2022-07-26T18:46:56.359Z,100.00
2022-07-26T18:49:27.235Z,100.00
2022-07-26T18:52:04.250Z,100.00
2022-07-26T18:54:35.874Z,100.00
2022-07-26T18:57:03.212Z,100.00
2022-07-26T18:59:31.145Z,100.00
2022-07-26T19:01:59.926Z,100.00
2022-07-26T19:04:27.958Z,100.00
2022-07-26T19:06:56.565Z,99.71
2022-07-26T19:09:23.855Z,99.06
2022-07-26T19:11:51.389Z,99.04
2022-07-26T19:14:18.592Z,99.44
2022-07-26T19:16:45.411Z,98.90
2022-07-26T19:19:12.697Z,98.84
2022-07-26T19:21:44.863Z,98.94
2022-07-26T19:24:11.793Z,98.33
2022-07-26T19:26:39.011Z,98.57
2022-07-26T19:29:05.888Z,98.28
2022-07-26T19:31:33.282Z,98.56
2022-07-26T19:34:00.499Z,98.51
2022-07-26T19:36:27.365Z,98.49
2022-07-26T19:38:56.816Z,98.67
2022-07-26T19:41:24.005Z,98.60
2022-07-26T19:43:50.884Z,98.32
2022-07-26T19:46:17.849Z,97.90
2022-07-26T19:48:45.203Z,97.94
2022-07-26T19:51:12.203Z,98.23
2022-07-26T19:53:38.999Z,98.17
2022-07-26T19:56:06.355Z,98.63
2022-07-26T19:58:33.491Z,98.62
2022-07-26T20:01:00.794Z,98.60
2022-07-26T20:03:28.160Z,98.66
2022-07-26T20:05:56.866Z,98.73
2022-07-26T20:08:24.437Z,99.04
2022-07-26T20:10:51.725Z,99.38
2022-07-26T20:13:18.605Z,99.28
2022-07-26T20:15:47.339Z,98.76
2022-07-26T20:18:14.728Z,98.68
2022-07-26T20:20:41.633Z,98.79
2022-07-26T20:23:11.107Z,98.98
2022-07-26T20:25:38.194Z,98.73
2022-07-26T20:28:05.282Z,99.20
2022-07-26T20:30:32.164Z,99.06
2022-07-26T20:32:59.187Z,98.99
2022-07-26T20:35:26.105Z,99.11
2022-07-26T20:37:53.305Z,98.79
2022-07-26T20:40:20.999Z,98.95
2022-07-26T20:42:50.237Z,99.10
2022-07-26T20:45:17.708Z,98.79
2022-07-26T20:47:44.901Z,98.92
2022-07-26T20:50:12.191Z,99.06
2022-07-26T20:52:39.936Z,99.35
2022-07-26T20:55:08.236Z,99.04
2022-07-26T20:57:35.793Z,99.11
2022-07-26T21:00:06.636Z,99.00
2022-07-26T21:02:33.923Z,99.39
2022-07-26T21:05:00.834Z,98.87
2022-07-26T21:07:55.135Z,98.84
2022-07-26T21:10:14.921Z,99.09
2022-07-26T21:12:42.757Z,99.13
2022-07-26T21:15:10.338Z,98.98
2022-07-26T21:17:38.133Z,98.96
2022-07-26T21:20:05.900Z,98.66
2022-07-26T21:22:33.315Z,99.04
2022-07-26T21:25:00.466Z,98.88
2022-07-26T21:27:27.265Z,99.42
2022-07-26T21:29:54.160Z,99.39
2022-07-26T21:32:21.396Z,99.63
2022-07-26T21:34:48.359Z,99.56
2022-07-26T21:37:15.233Z,99.25
2022-07-26T21:39:42.690Z,99.28
2022-07-26T21:42:09.552Z,99.03
2022-07-26T21:44:36.330Z,98.77
2022-07-26T21:47:05.823Z,98.81
2022-07-26T21:49:33.442Z,98.96
2022-07-26T21:52:00.379Z,98.54
2022-07-26T21:54:27.461Z,98.74
2022-07-26T21:56:54.406Z,98.16
2022-07-26T21:59:21.439Z,97.85
2022-07-26T22:01:48.576Z,98.41
2022-07-26T22:04:17.215Z,98.52
2022-07-26T22:06:45.385Z,98.49
2022-07-26T22:09:12.913Z,98.72
2022-07-26T22:11:40.111Z,98.66
2022-07-26T22:14:08.555Z,98.76
2022-07-26T22:16:35.857Z,98.41
2022-07-26T22:19:03.083Z,98.58
2022-07-26T22:21:29.898Z,98.07
2022-07-26T22:23:57.037Z,98.52
2022-07-26T22:26:27.002Z,98.29
2022-07-26T22:28:53.901Z,98.32
2022-07-26T22:31:21.208Z,98.22
2022-07-26T22:33:48.458Z,98.30
2022-07-26T22:36:17.658Z,98.15
2022-07-26T22:38:48.244Z,98.23
2022-07-26T22:41:15.047Z,98.04
2022-07-26T22:43:42.041Z,98.14
2022-07-26T22:46:09.184Z,98.18
2022-07-26T22:48:38.699Z,98.13
2022-07-26T22:51:06.297Z,98.12
2022-07-26T22:53:33.352Z,98.26
2022-07-26T22:56:00.288Z,98.69
2022-07-26T22:58:27.192Z,98.12
2022-07-26T23:00:54.374Z,98.09
2022-07-26T23:03:22.002Z,98.30
2022-07-26T23:05:50.609Z,97.64
2022-07-26T23:11:07.011Z,97.69
2022-07-26T23:13:34.148Z,97.68
2022-07-26T23:16:01.976Z,97.72
2022-07-26T23:18:30.924Z,97.41
2022-07-26T23:20:58.010Z,97.37
2022-07-26T23:23:29.320Z,97.50
2022-07-26T23:25:58.164Z,97.05
2022-07-26T23:28:37.311Z,97.14
2022-07-26T23:31:07.816Z,97.23
2022-07-26T23:33:52.482Z,96.88
2022-07-26T23:36:26.426Z,97.28
2022-07-26T23:38:58.469Z,97.27
2022-07-26T23:41:26.584Z,97.38
2022-07-26T23:43:54.615Z,97.38
2022-07-26T23:46:22.606Z,96.83
2022-07-26T23:48:50.194Z,97.16
2022-07-26T23:51:17.920Z,97.62
2022-07-26T23:53:45.519Z,97.27
2022-07-26T23:56:12.743Z,97.13
2022-07-26T23:58:39.771Z,96.96
